Time;durP1;ratioP1;P1;durP2;ratioP2;P2;SDS_P1;SDS_P2;PMS_P1;PMS_P2;Temp;Humidity;BMP_temperature;BMP_pressure;BME280_temperature;BME280_humidity;BME280_pressure;Samples;Min_cycle;Max_cycle;Signal;HPM_P1;HPM_P2
2024/01/27 00:00:08;;;;;;;14.23;5.55;;;4.70;99.90;;;;;;5091306;28;20060;-60
2024/01/27 00:02:34;;;;;;;23.13;5.32;;;4.60;99.90;;;;;;5074335;28;20086;-61
2024/01/27 00:05:00;;;;;;;23.73;5.90;;;4.50;99.90;;;;;;5090277;28;20075;-60
2024/01/27 00:07:27;;;;;;;19.70;4.72;;;4.50;99.90;;;;;;5092321;28;20401;-61
2024/01/27 00:09:58;;;;;;;16.45;5.65;;;4.40;99.90;;;;;;5073489;28;20539;-61
2024/01/27 00:12:23;;;;;;;30.25;11.70;;;4.40;99.90;;;;;;5090302;28;20093;-61
2024/01/27 00:14:50;;;;;;;39.80;15.60;;;4.40;99.90;;;;;;5092181;28;20035;-61
2024/01/27 00:17:15;;;;;;;59.90;23.83;;;4.40;99.90;;;;;;5090892;28;20080;-61
2024/01/27 00:19:41;;;;;;;57.58;24.15;;;4.40;99.90;;;;;;5089557;28;20080;-61
2024/01/27 00:22:08;;;;;;;51.50;20.63;;;4.50;99.90;;;;;;5108188;28;20101;-60
2024/01/27 00:24:34;;;;;;;31.23;11.77;;;4.50;99.90;;;;;;5090771;28;20043;-61
2024/01/27 00:27:00;;;;;;;20.55;6.93;;;4.50;99.90;;;;;;5107361;28;20040;-61
2024/01/27 00:29:26;;;;;;;22.83;4.57;;;4.50;99.90;;;;;;5090679;28;20041;-61
2024/01/27 00:31:54;;;;;;;20.23;4.47;;;4.50;99.90;;;;;;5090327;28;20047;-61
2024/01/27 00:34:20;;;;;;;18.08;5.15;;;4.30;99.90;;;;;;5090261;28;20043;-61
2024/01/27 00:36:48;;;;;;;17.10;5.72;;;4.30;99.90;;;;;;5107886;28;20040;-61
2024/01/27 00:39:18;;;;;;;16.35;4.80;;;4.30;99.90;;;;;;5072935;28;20063;-60
2024/01/27 00:41:43;;;;;;;20.75;7.78;;;4.20;99.90;;;;;;5072041;28;20041;-61
2024/01/27 00:44:10;;;;;;;21.02;4.93;;;4.20;99.90;;;;;;5070531;28;20074;-60
2024/01/27 00:46:37;;;;;;;17.55;5.20;;;4.10;99.90;;;;;;5076933;28;20481;-61
2024/01/27 00:49:03;;;;;;;19.52;4.82;;;4.10;99.90;;;;;;5090733;28;20059;-61
2024/01/27 00:51:29;;;;;;;15.52;5.07;;;4.20;99.90;;;;;;5090687;28;20078;-60
2024/01/27 00:53:54;;;;;;;16.98;5.35;;;4.10;99.90;;;;;;5106974;28;20432;-60
2024/01/27 00:56:20;;;;;;;15.07;4.32;;;4.20;99.90;;;;;;5090625;28;20032;-60
2024/01/27 00:58:46;;;;;;;19.83;4.32;;;4.20;99.90;;;;;;5091773;28;20040;-61
2024/01/27 01:01:12;;;;;;;26.38;4.78;;;4.20;99.90;;;;;;5089113;28;20135;-61
2024/01/27 01:03:37;;;;;;;16.83;5.18;;;4.10;99.90;;;;;;5090287;28;20044;-61
2024/01/27 01:06:03;;;;;;;12.15;5.15;;;4.10;99.90;;;;;;5093621;28;20378;-61
2024/01/27 01:08:29;;;;;;;16.58;3.95;;;4.10;99.90;;;;;;5093350;28;20056;-61
2024/01/27 01:10:54;;;;;;;20.00;4.57;;;4.10;99.90;;;;;;5094592;28;20036;-61
2024/01/27 01:13:20;;;;;;;15.50;3.75;;;4.00;99.90;;;;;;5094374;28;20408;-60
2024/01/27 01:15:46;;;;;;;12.23;3.63;;;4.00;99.90;;;;;;5094283;28;20036;-61
2024/01/27 01:18:12;;;;;;;15.27;4.13;;;4.00;99.90;;;;;;5095339;28;20044;-60
2024/01/27 01:20:37;;;;;;;15.52;5.72;;;3.90;99.90;;;;;;5095528;28;20043;-60
2024/01/27 01:23:03;;;;;;;19.58;3.95;;;4.00;99.90;;;;;;5093595;28;20043;-60
2024/01/27 01:25:29;;;;;;;17.30;4.65;;;4.00;99.90;;;;;;5094083;28;20382;-60
2024/01/27 01:27:54;;;;;;;15.65;4.43;;;4.00;99.90;;;;;;5094176;28;20093;-61
2024/01/27 01:30:20;;;;;;;11.93;4.95;;;4.00;99.90;;;;;;5092984;28;20042;-61
2024/01/27 01:32:46;;;;;;;14.32;4.85;;;4.10;99.90;;;;;;5095099;28;20039;-60
2024/01/27 01:35:11;;;;;;;17.27;3.33;;;4.10;99.90;;;;;;5093023;28;20075;-61
2024/01/27 01:37:37;;;;;;;12.23;3.92;;;4.20;99.90;;;;;;5110819;28;20046;-61
2024/01/27 01:40:03;;;;;;;22.20;4.28;;;4.20;99.90;;;;;;5095448;28;20044;-61
2024/01/27 01:42:29;;;;;;;19.35;3.95;;;4.20;99.90;;;;;;5093898;28;20036;-61
2024/01/27 01:44:55;;;;;;;13.82;4.45;;;4.30;99.90;;;;;;5093586;28;20040;-61
2024/01/27 01:47:22;;;;;;;26.95;5.75;;;4.30;99.90;;;;;;5093469;28;20051;-61
2024/01/27 01:49:48;;;;;;;19.30;3.55;;;4.30;99.90;;;;;;5094229;28;20040;-61
2024/01/27 01:52:19;;;;;;;19.23;3.80;;;4.30;99.90;;;;;;5093532;28;20111;-61
2024/01/27 01:54:51;;;;;;;18.48;4.22;;;4.20;99.90;;;;;;5093641;28;20044;-61
2024/01/27 01:57:17;;;;;;;11.10;3.33;;;4.20;99.90;;;;;;5093728;28;20040;-61
2024/01/27 01:59:43;;;;;;;17.60;3.85;;;4.20;99.90;;;;;;5076464;28;20044;-61
2024/01/27 02:02:09;;;;;;;13.52;3.72;;;4.10;99.90;;;;;;5093423;28;20131;-61
2024/01/27 02:04:42;;;;;;;24.30;4.72;;;4.10;99.90;;;;;;5092392;28;20035;-61
2024/01/27 02:07:08;;;;;;;18.83;4.22;;;4.00;99.90;;;;;;5074392;28;20040;-61
2024/01/27 02:09:33;;;;;;;14.07;3.13;;;4.00;99.90;;;;;;5072901;28;20087;-61
2024/01/27 02:11:59;;;;;;;13.52;3.53;;;3.90;99.90;;;;;;5092586;28;20071;-61
2024/01/27 02:14:27;;;;;;;17.30;5.07;;;3.90;99.90;;;;;;5093288;28;20074;-61
2024/01/27 02:16:53;;;;;;;18.85;3.70;;;3.80;99.90;;;;;;5092203;28;20044;-61
2024/01/27 02:19:19;;;;;;;12.95;3.58;;;3.80;99.90;;;;;;5092277;28;20044;-60
2024/01/27 02:21:44;;;;;;;13.02;3.60;;;3.70;99.90;;;;;;5093501;28;20404;-61
2024/01/27 02:24:10;;;;;;;14.93;4.10;;;3.70;99.90;;;;;;5093900;28;20040;-61
2024/01/27 02:26:36;;;;;;;23.58;4.50;;;3.70;99.90;;;;;;5091914;28;20086;-60
2024/01/27 02:29:05;;;;;;;14.45;3.63;;;3.60;99.90;;;;;;5092899;28;20051;-60
2024/01/27 02:31:31;;;;;;;12.77;3.72;;;3.60;99.90;;;;;;5091805;28;20520;-61
2024/01/27 02:33:56;;;;;;;15.60;4.50;;;3.60;99.90;;;;;;5092970;28;20084;-60
2024/01/27 02:36:22;;;;;;;14.15;3.85;;;3.60;99.90;;;;;;5092578;28;20040;-61
2024/01/27 02:38:47;;;;;;;19.27;4.55;;;3.60;99.90;;;;;;5091766;28;20044;-61
2024/01/27 02:41:14;;;;;;;10.90;3.83;;;3.60;99.90;;;;;;5091864;28;20048;-60
2024/01/27 02:43:40;;;;;;;22.05;4.00;;;3.50;99.90;;;;;;5092480;28;20044;-60
2024/01/27 02:46:12;;;;;;;15.70;4.00;;;3.50;99.90;;;;;;5075048;28;20063;-60
2024/01/27 02:48:44;;;;;;;13.95;4.20;;;3.50;99.90;;;;;;5092505;28;20058;-60
2024/01/27 02:51:09;;;;;;;15.73;5.25;;;3.50;99.90;;;;;;5093607;28;20047;-61
2024/01/27 02:53:35;;;;;;;14.13;3.67;;;3.40;99.90;;;;;;5090954;28;20032;-60
2024/01/27 02:56:01;;;;;;;11.85;4.18;;;3.40;99.90;;;;;;5092552;28;20446;-61
2024/01/27 02:58:26;;;;;;;12.70;4.07;;;3.30;99.90;;;;;;5074988;28;20043;-61
2024/01/27 03:00:52;;;;;;;14.93;4.20;;;3.30;99.90;;;;;;5091347;28;20081;-61
2024/01/27 03:03:18;;;;;;;9.85;3.58;;;3.40;99.90;;;;;;5091743;28;20056;-61
2024/01/27 03:05:43;;;;;;;9.85;3.33;;;3.40;99.90;;;;;;5092065;28;20047;-61
2024/01/27 03:08:09;;;;;;;13.07;3.65;;;3.40;99.90;;;;;;5091288;28;20044;-60
2024/01/27 03:10:35;;;;;;;17.27;3.58;;;3.40;99.90;;;;;;5093231;28;20115;-60
2024/01/27 03:13:00;;;;;;;20.58;4.88;;;3.40;99.90;;;;;;5093554;28;20044;-60
2024/01/27 03:15:26;;;;;;;12.93;3.53;;;3.40;99.90;;;;;;5092493;28;20058;-61
2024/01/27 03:17:52;;;;;;;13.63;3.92;;;3.40;99.90;;;;;;5092057;28;20058;-61
2024/01/27 03:20:17;;;;;;;14.07;3.38;;;3.40;99.90;;;;;;5091436;28;20048;-61
2024/01/27 03:22:43;;;;;;;10.90;3.78;;;3.40;99.90;;;;;;5090642;28;20044;-61
2024/01/27 03:25:10;;;;;;;17.92;3.58;;;3.30;99.90;;;;;;5091727;28;20040;-61
2024/01/27 03:27:36;;;;;;;12.68;4.45;;;3.30;99.90;;;;;;5091582;28;20043;-60
2024/01/27 03:30:03;;;;;;;16.38;3.20;;;3.30;99.90;;;;;;5091965;28;20028;-60
2024/01/27 03:32:32;;;;;;;15.77;4.43;;;3.20;99.90;;;;;;5091277;28;20443;-60
2024/01/27 03:34:59;;;;;;;11.32;3.25;;;3.20;99.90;;;;;;5091180;28;20046;-61
2024/01/27 03:37:25;;;;;;;20.25;4.00;;;3.20;99.90;;;;;;5092766;28;20036;-61
2024/01/27 03:39:50;;;;;;;16.70;4.13;;;3.20;99.90;;;;;;5074674;28;20044;-60
2024/01/27 03:42:16;;;;;;;13.57;4.68;;;3.20;99.90;;;;;;5090601;28;20048;-61
2024/01/27 03:44:42;;;;;;;17.77;3.20;;;3.10;99.90;;;;;;5091241;28;20123;-60
2024/01/27 03:47:07;;;;;;;21.25;5.35;;;3.10;99.90;;;;;;5091608;28;20404;-61
2024/01/27 03:49:33;;;;;;;17.48;3.88;;;3.10;99.90;;;;;;5090187;28;20044;-61
2024/01/27 03:51:58;;;;;;;16.83;4.63;;;3.10;99.90;;;;;;5074663;28;20040;-61
2024/01/27 03:54:24;;;;;;;14.43;3.40;;;3.10;99.90;;;;;;5074243;28;20032;-61
2024/01/27 03:56:50;;;;;;;13.25;3.95;;;3.10;99.90;;;;;;5090068;28;20039;-61
2024/01/27 03:59:15;;;;;;;13.70;3.95;;;3.10;99.90;;;;;;5092470;28;20051;-60
2024/01/27 04:01:41;;;;;;;14.93;4.10;;;3.10;99.90;;;;;;5085198;28;20063;-61
2024/01/27 04:04:07;;;;;;;14.68;4.38;;;3.10;99.90;;;;;;5090613;28;20051;-61
2024/01/27 04:06:38;;;;;;;16.05;3.95;;;3.20;99.90;;;;;;5092255;28;20036;-60
2024/01/27 04:09:04;;;;;;;16.58;4.25;;;3.10;99.90;;;;;;5091260;28;20048;-61
2024/01/27 04:11:29;;;;;;;15.90;4.03;;;3.10;99.90;;;;;;5091021;28;20493;-61
2024/01/27 04:13:55;;;;;;;12.43;4.10;;;3.20;99.90;;;;;;5090923;28;20165;-60
2024/01/27 04:16:21;;;;;;;15.77;5.18;;;3.10;99.90;;;;;;5090952;28;20408;-61
2024/01/27 04:18:47;;;;;;;13.57;3.08;;;3.20;99.90;;;;;;5090004;28;20043;-60
2024/01/27 04:21:12;;;;;;;14.15;3.72;;;3.20;99.90;;;;;;5090575;28;20044;-61
2024/01/27 04:23:38;;;;;;;14.85;4.00;;;3.20;99.90;;;;;;5090785;28;20124;-61
2024/01/27 04:26:06;;;;;;;15.30;3.83;;;3.20;99.90;;;;;;5090071;28;20382;-61
2024/01/27 04:28:31;;;;;;;16.52;4.45;;;3.20;99.90;;;;;;5090235;28;20074;-61
2024/01/27 04:30:57;;;;;;;21.92;4.10;;;3.20;99.90;;;;;;5090649;28;20126;-60
2024/01/27 04:33:23;;;;;;;17.83;3.95;;;3.20;99.90;;;;;;5091024;28;20055;-61
2024/01/27 04:35:49;;;;;;;14.02;3.30;;;3.20;99.90;;;;;;5073956;28;20039;-61
2024/01/27 04:38:14;;;;;;;15.20;3.83;;;3.20;99.90;;;;;;5091044;28;20036;-61
2024/01/27 04:40:40;;;;;;;16.40;3.97;;;3.20;99.90;;;;;;5093112;28;20473;-61
2024/01/27 04:43:06;;;;;;;13.68;3.78;;;3.20;99.90;;;;;;5096540;28;20504;-61
2024/01/27 04:45:31;;;;;;;14.90;5.20;;;3.20;99.90;;;;;;5093619;28;20473;-61
2024/01/27 04:47:57;;;;;;;10.82;2.90;;;3.20;99.90;;;;;;5096325;28;20085;-61
2024/01/27 04:50:23;;;;;;;14.82;5.10;;;3.20;99.90;;;;;;5094566;28;20181;-60
2024/01/27 04:52:48;;;;;;;8.98;3.20;;;3.30;99.90;;;;;;5093942;28;20079;-61
2024/01/27 04:55:14;;;;;;;11.52;3.63;;;3.20;99.90;;;;;;5093871;28;20039;-61
2024/01/27 04:57:40;;;;;;;12.82;3.50;;;3.30;99.90;;;;;;5096084;28;20032;-60
2024/01/27 05:00:10;;;;;;;14.40;4.32;;;3.30;99.90;;;;;;5077297;28;20491;-61
2024/01/27 05:02:36;;;;;;;14.15;3.40;;;3.30;99.90;;;;;;5094150;28;20082;-61
2024/01/27 05:05:03;;;;;;;17.67;4.18;;;3.30;99.90;;;;;;5094756;28;20396;-60
2024/01/27 05:07:28;;;;;;;18.17;4.55;;;3.30;99.90;;;;;;5093695;28;20054;-60
2024/01/27 05:09:54;;;;;;;15.35;4.13;;;3.30;99.90;;;;;;5094846;28;20044;-61
2024/01/27 05:12:19;;;;;;;14.43;3.63;;;3.30;99.90;;;;;;5095526;28;20042;-61
2024/01/27 05:14:45;;;;;;;11.93;3.13;;;3.30;99.90;;;;;;5093264;28;20117;-61
2024/01/27 05:17:11;;;;;;;14.30;4.55;;;3.30;99.90;;;;;;5094143;28;20043;-61
2024/01/27 05:19:36;;;;;;;14.95;4.07;;;3.30;99.90;;;;;;5094484;28;20048;-61
2024/01/27 05:22:02;;;;;;;10.98;3.50;;;3.30;99.90;;;;;;5094759;28;20046;-61
2024/01/27 05:24:28;;;;;;;11.50;3.22;;;3.30;99.90;;;;;;5093954;28;20122;-61
2024/01/27 05:26:59;;;;;;;15.00;3.58;;;3.20;99.90;;;;;;5095505;28;20120;-61
2024/01/27 05:29:27;;;;;;;12.30;3.70;;;3.30;99.90;;;;;;5094277;28;20044;-61
2024/01/27 05:31:52;;;;;;;15.07;3.35;;;3.30;99.90;;;;;;5093766;28;20044;-61
2024/01/27 05:34:18;;;;;;;13.50;3.08;;;3.30;99.90;;;;;;5093207;28;20061;-61
2024/01/27 05:36:44;;;;;;;11.70;3.55;;;3.30;99.90;;;;;;5095189;28;20070;-61
2024/01/27 05:39:10;;;;;;;15.32;3.45;;;3.30;99.90;;;;;;5094074;28;20117;-61
2024/01/27 05:41:35;;;;;;;14.05;3.35;;;3.30;99.90;;;;;;5075825;28;20074;-61
2024/01/27 05:44:01;;;;;;;17.45;3.83;;;3.30;99.90;;;;;;5094141;28;20071;-61
2024/01/27 05:46:27;;;;;;;10.80;3.05;;;3.30;99.90;;;;;;5077019;28;20567;-61
2024/01/27 05:48:53;;;;;;;12.45;3.95;;;3.20;99.90;;;;;;5092848;28;20346;-61
2024/01/27 05:51:23;;;;;;;12.95;4.22;;;3.20;99.90;;;;;;5094881;28;20086;-61
2024/01/27 05:53:49;;;;;;;24.38;4.00;;;3.20;99.90;;;;;;5093125;28;20047;-61
2024/01/27 05:56:16;;;;;;;18.52;3.38;;;3.20;99.90;;;;;;5092310;28;20036;-61
2024/01/27 05:58:41;;;;;;;11.18;3.30;;;3.20;99.90;;;;;;5094805;28;20401;-61
2024/01/27 06:01:09;;;;;;;14.13;3.28;;;3.20;99.90;;;;;;5093540;28;20058;-61
2024/01/27 06:03:35;;;;;;;11.85;3.28;;;3.20;99.90;;;;;;5092686;28;20101;-61
2024/01/27 06:06:02;;;;;;;13.68;3.33;;;3.30;99.90;;;;;;5093483;28;20512;-61
2024/01/27 06:08:28;;;;;;;13.75;3.53;;;3.20;99.90;;;;;;5094406;28;20048;-61
2024/01/27 06:10:54;;;;;;;12.32;2.97;;;3.20;99.90;;;;;;5093386;28;20035;-61
2024/01/27 06:13:19;;;;;;;13.10;3.42;;;3.20;99.90;;;;;;5093064;28;20048;-61
2024/01/27 06:15:45;;;;;;;14.70;4.10;;;3.10;99.90;;;;;;5093349;28;20075;-61
2024/01/27 06:18:11;;;;;;;11.20;3.20;;;3.10;99.90;;;;;;5075594;28;20122;-61
2024/01/27 06:20:36;;;;;;;21.02;5.90;;;3.10;99.90;;;;;;5094103;28;20040;-61
2024/01/27 06:23:02;;;;;;;9.70;3.78;;;3.10;99.90;;;;;;5092869;28;20085;-61
2024/01/27 06:25:28;;;;;;;14.52;3.97;;;3.10;99.90;;;;;;5093430;28;20039;-61
2024/01/27 06:27:53;;;;;;;10.57;3.53;;;3.10;99.90;;;;;;5093108;28;20047;-61
2024/01/27 06:30:19;;;;;;;11.98;3.13;;;3.10;99.90;;;;;;5092781;28;20465;-61
2024/01/27 06:32:47;;;;;;;12.93;3.22;;;3.10;99.90;;;;;;5091794;28;20466;-61
2024/01/27 06:35:13;;;;;;;14.48;3.60;;;3.10;99.90;;;;;;5092718;28;20116;-61
2024/01/27 06:37:38;;;;;;;40.85;5.50;;;3.00;99.90;;;;;;5091783;28;20123;-61
2024/01/27 06:40:04;;;;;;;16.17;4.03;;;3.10;99.90;;;;;;5094033;28;20040;-61
2024/01/27 06:42:30;;;;;;;11.32;3.22;;;3.00;99.90;;;;;;5092318;28;20047;-61
2024/01/27 06:44:56;;;;;;;15.48;3.78;;;3.00;99.90;;;;;;5091694;28;20032;-61
2024/01/27 06:47:21;;;;;;;11.68;3.05;;;2.90;99.90;;;;;;5091678;28;20040;-61
2024/01/27 06:49:47;;;;;;;17.08;4.70;;;2.90;99.90;;;;;;5092150;28;20074;-61
2024/01/27 06:52:13;;;;;;;12.43;3.97;;;2.80;99.90;;;;;;5091651;28;20036;-61
2024/01/27 06:54:43;;;;;;;14.73;2.70;;;2.90;99.90;;;;;;5093645;28;20397;-61
2024/01/27 06:57:21;;;;;;;9.15;2.25;;;2.80;99.90;;;;;;5092164;28;20105;-61
2024/01/27 06:59:51;;;;;;;21.02;3.35;;;2.80;99.90;;;;;;5091204;28;20044;-61
2024/01/27 07:02:28;;;;;;;16.95;4.38;;;2.70;99.90;;;;;;5090917;28;20084;-61
2024/01/27 07:04:57;;;;;;;15.43;3.30;;;2.70;99.90;;;;;;5091402;28;20465;-61
2024/01/27 07:07:27;;;;;;;18.27;3.65;;;2.80;99.90;;;;;;5090654;28;20044;-61
2024/01/27 07:09:55;;;;;;;15.93;5.00;;;2.80;99.90;;;;;;5091687;28;20066;-61
2024/01/27 07:12:21;;;;;;;12.52;3.58;;;2.80;99.90;;;;;;5092547;28;20109;-61
2024/01/27 07:14:46;;;;;;;16.92;4.30;;;2.70;99.90;;;;;;5090994;28;20047;-61
2024/01/27 07:17:13;;;;;;;11.15;3.58;;;2.70;99.90;;;;;;5092855;28;20036;-61
2024/01/27 07:19:39;;;;;;;17.55;4.72;;;2.70;99.90;;;;;;5090863;28;20048;-61
2024/01/27 07:22:05;;;;;;;15.88;4.50;;;2.70;99.90;;;;;;5092974;28;20042;-61
2024/01/27 07:24:31;;;;;;;8.02;3.80;;;2.70;99.90;;;;;;5092416;28;20077;-61
2024/01/27 07:26:58;;;;;;;17.58;4.90;;;2.60;99.90;;;;;;5090934;28;20040;-61
2024/01/27 07:29:24;;;;;;;18.13;4.95;;;2.70;99.90;;;;;;5090953;28;21613;-61
2024/01/27 07:31:50;;;;;;;21.42;5.68;;;2.70;99.90;;;;;;5090824;28;20048;-61
2024/01/27 07:34:19;;;;;;;17.35;4.45;;;2.70;99.90;;;;;;5091337;28;20101;-61
2024/01/27 07:36:45;;;;;;;17.52;4.70;;;2.80;99.90;;;;;;5092420;28;20381;-61
2024/01/27 07:39:11;;;;;;;12.98;4.50;;;2.80;99.90;;;;;;5090687;28;20139;-61
2024/01/27 07:41:37;;;;;;;20.17;4.45;;;2.80;99.90;;;;;;5090098;28;20051;-60
2024/01/27 07:44:21;;;;;;;15.15;5.90;;;2.70;99.90;;;;;;5074271;28;20047;-60
2024/01/27 07:46:47;;;;;;;27.30;6.22;;;2.70;99.90;;;;;;5090431;28;20090;-60
2024/01/27 07:49:14;;;;;;;26.52;6.50;;;2.80;99.90;;;;;;5089008;28;20166;-61
2024/01/27 07:51:40;;;;;;;24.20;4.80;;;2.80;99.90;;;;;;5090696;28;20043;-60
2024/01/27 07:54:05;;;;;;;15.75;4.63;;;2.70;99.90;;;;;;5091548;28;20365;-61
2024/01/27 07:56:31;;;;;;;10.68;3.85;;;2.80;99.90;;;;;;5067455;28;20051;-60
2024/01/27 07:58:57;;;;;;;17.05;4.18;;;2.80;99.90;;;;;;5083817;28;20043;-60
2024/01/27 08:01:22;;;;;;;16.13;4.45;;;2.80;99.90;;;;;;5089240;28;20048;-60
2024/01/27 08:03:48;;;;;;;14.63;4.40;;;2.90;99.90;;;;;;5088994;28;20040;-60
2024/01/27 08:06:19;;;;;;;26.15;8.43;;;2.90;99.90;;;;;;5088464;28;20040;-60
2024/01/27 08:08:46;;;;;;;24.83;8.02;;;2.90;99.90;;;;;;5088288;28;20051;-60
2024/01/27 08:11:11;;;;;;;20.08;4.35;;;3.00;99.90;;;;;;5086349;28;20485;-60
2024/01/27 08:13:37;;;;;;;21.63;4.60;;;3.10;99.90;;;;;;5088393;28;20044;-60
2024/01/27 08:16:05;;;;;;;17.70;4.93;;;3.10;99.90;;;;;;5088615;28;20123;-61
2024/01/27 08:18:30;;;;;;;15.05;4.47;;;3.10;99.90;;;;;;5088776;28;20120;-61
2024/01/27 08:20:56;;;;;;;18.08;5.25;;;3.10;99.90;;;;;;5088290;28;20079;-60
2024/01/27 08:23:22;;;;;;;14.73;4.47;;;3.20;99.90;;;;;;5070018;28;20038;-60
2024/01/27 08:25:52;;;;;;;13.57;4.05;;;3.20;99.90;;;;;;5089152;28;20039;-61
2024/01/27 08:28:17;;;;;;;17.88;3.58;;;3.20;99.90;;;;;;5085250;28;20097;-61
2024/01/27 08:30:43;;;;;;;18.00;4.25;;;3.30;99.90;;;;;;5085719;28;20453;-60
2024/01/27 08:33:09;;;;;;;18.40;4.60;;;3.30;99.90;;;;;;5087051;28;20432;-60
2024/01/27 08:35:34;;;;;;;17.27;3.80;;;3.40;99.90;;;;;;5070869;28;20050;-60
2024/01/27 08:38:00;;;;;;;18.63;3.80;;;3.40;99.90;;;;;;5087054;28;20051;-61
2024/01/27 08:40:26;;;;;;;24.38;5.00;;;3.40;99.90;;;;;;5087219;28;20043;-61
2024/01/27 08:42:51;;;;;;;19.38;4.63;;;3.50;99.90;;;;;;5087028;28;20048;-61
2024/01/27 08:45:17;;;;;;;17.70;3.90;;;3.50;99.90;;;;;;5085771;28;20059;-61
2024/01/27 08:47:42;;;;;;;18.13;4.85;;;3.50;99.90;;;;;;5087645;28;20126;-60
2024/01/27 08:50:10;;;;;;;16.92;4.63;;;3.60;99.90;;;;;;5106645;28;20044;-61
2024/01/27 08:52:36;;;;;;;17.33;4.45;;;3.60;99.90;;;;;;5096839;28;20044;-60
2024/01/27 08:55:02;;;;;;;20.92;6.07;;;3.70;99.90;;;;;;5089687;28;20047;-61
2024/01/27 08:57:27;;;;;;;16.45;5.60;;;3.80;99.90;;;;;;5102808;28;20050;-60
2024/01/27 08:59:53;;;;;;;18.08;4.75;;;3.90;99.90;;;;;;5070326;28;20076;-60
2024/01/27 09:02:19;;;;;;;23.00;8.07;;;4.00;99.90;;;;;;5086824;28;20134;-61
2024/01/27 09:04:44;;;;;;;20.75;7.00;;;4.00;99.90;;;;;;5087274;28;20044;-60
2024/01/27 09:07:11;;;;;;;20.65;5.75;;;4.10;99.90;;;;;;5088157;28;20122;-61
2024/01/27 09:09:38;;;;;;;15.60;5.10;;;4.20;99.90;;;;;;5088258;28;20378;-60
2024/01/27 09:12:04;;;;;;;39.92;21.85;;;4.30;99.90;;;;;;5086608;28;20078;-60
2024/01/27 09:14:30;;;;;;;47.78;28.45;;;4.40;99.90;;;;;;5086392;28;20432;-61
2024/01/27 09:16:56;;;;;;;26.67;7.63;;;4.40;99.90;;;;;;5087796;28;20636;-60
2024/01/27 09:19:22;;;;;;;23.20;6.97;;;4.50;99.90;;;;;;5086550;28;20054;-60
2024/01/27 09:21:47;;;;;;;19.23;5.47;;;4.60;99.90;;;;;;5085934;28;20058;-60
2024/01/27 09:24:13;;;;;;;21.63;8.85;;;4.60;99.90;;;;;;5086524;28;20119;-61
2024/01/27 09:26:39;;;;;;;27.88;10.65;;;4.60;99.90;;;;;;5089116;28;20056;-60
2024/01/27 09:29:05;;;;;;;20.42;9.02;;;4.80;99.90;;;;;;5091153;28;20404;-61
2024/01/27 09:31:30;;;;;;;21.00;8.15;;;4.90;99.90;;;;;;5090702;28;20044;-60
2024/01/27 09:33:56;;;;;;;21.08;7.65;;;4.90;99.90;;;;;;5091770;28;20479;-60
2024/01/27 09:36:22;;;;;;;22.58;10.07;;;5.00;99.90;;;;;;5090328;28;20036;-61
2024/01/27 09:38:48;;;;;;;22.15;10.15;;;5.10;99.90;;;;;;5091280;28;20135;-60
2024/01/27 09:41:14;;;;;;;35.67;24.60;;;5.10;99.90;;;;;;5090438;28;20115;-60
2024/01/27 09:43:44;;;;;;;41.38;27.13;;;5.20;99.90;;;;;;5092150;28;20040;-61
2024/01/27 09:46:12;;;;;;;19.90;10.82;;;5.30;99.90;;;;;;5074637;28;20044;-60
2024/01/27 09:48:38;;;;;;;43.10;22.10;;;5.30;99.90;;;;;;5094106;28;20036;-61
2024/01/27 09:51:05;;;;;;;27.80;16.08;;;5.40;99.90;;;;;;5094683;28;20096;-60
2024/01/27 09:53:30;;;;;;;27.48;15.18;;;5.40;99.90;;;;;;5092986;28;20063;-60
2024/01/27 09:55:58;;;;;;;78.03;56.25;;;5.50;99.90;;;;;;5093094;28;20059;-60
2024/01/27 09:58:27;;;;;;;31.38;18.73;;;5.60;99.90;;;;;;5094669;28;20508;-60
2024/01/27 10:00:57;;;;;;;39.30;25.40;;;5.60;99.90;;;;;;5093044;28;20060;-60
2024/01/27 10:03:25;;;;;;;34.53;16.85;;;5.70;99.90;;;;;;5092689;28;20044;-61
2024/01/27 10:05:56;;;;;;;54.60;33.25;;;5.80;99.90;;;;;;5093495;28;20040;-61
2024/01/27 10:08:22;;;;;;;77.55;51.97;;;5.80;99.90;;;;;;5092866;28;20044;-61
2024/01/27 10:10:56;;;;;;;86.22;62.88;;;5.80;99.90;;;;;;5092111;28;20039;-61
2024/01/27 10:13:28;;;;;;;56.35;44.63;;;5.90;99.90;;;;;;5081365;28;20511;-61
2024/01/27 10:16:04;;;;;;;37.47;27.85;;;6.00;99.90;;;;;;5074529;28;20046;-61
2024/01/27 10:18:31;;;;;;;26.65;12.88;;;6.10;99.90;;;;;;5092674;28;20398;-60
2024/01/27 10:20:57;;;;;;;43.28;30.48;;;6.20;99.90;;;;;;5094197;28;20097;-61
2024/01/27 10:23:23;;;;;;;34.70;19.65;;;6.30;99.90;;;;;;5091886;28;20580;-61
2024/01/27 10:25:50;;;;;;;33.92;20.00;;;6.30;99.90;;;;;;5092698;28;20123;-61
2024/01/27 10:28:16;;;;;;;39.58;25.20;;;6.40;99.90;;;;;;5075286;28;20036;-61
2024/01/27 10:30:43;;;;;;;31.55;18.35;;;6.40;99.90;;;;;;5092241;28;20392;-61
2024/01/27 10:33:10;;;;;;;51.08;34.17;;;6.50;99.90;;;;;;5092721;28;20083;-61
2024/01/27 10:35:36;;;;;;;81.22;60.08;;;6.50;99.90;;;;;;5092972;28;20075;-61
2024/01/27 10:38:02;;;;;;;54.33;41.70;;;6.60;99.90;;;;;;5091521;28;20074;-61
2024/01/27 10:40:28;;;;;;;66.95;45.47;;;6.60;99.90;;;;;;5092245;28;20449;-61
2024/01/27 10:43:06;;;;;;;40.35;26.83;;;6.70;99.90;;;;;;5092248;28;20054;-61
2024/01/27 10:45:40;;;;;;;25.25;17.02;;;6.80;99.90;;;;;;5092646;28;20554;-60
2024/01/27 10:48:09;;;;;;;17.90;9.75;;;6.90;99.90;;;;;;5109819;28;20063;-61
2024/01/27 10:50:37;;;;;;;19.15;6.50;;;6.90;99.90;;;;;;5092401;28;20115;-60
2024/01/27 10:53:18;;;;;;;22.95;11.88;;;6.90;99.90;;;;;;5093449;28;20503;-60
2024/01/27 10:55:45;;;;;;;19.27;7.50;;;6.90;99.90;;;;;;5090606;28;20097;-60
2024/01/27 10:58:12;;;;;;;19.90;10.55;;;7.00;99.90;;;;;;5092840;28;20072;-60
2024/01/27 11:00:40;;;;;;;23.17;7.05;;;7.10;99.90;;;;;;5073518;28;20144;-61
2024/01/27 11:03:07;;;;;;;19.30;8.45;;;7.10;99.90;;;;;;5088586;28;20110;-61
2024/01/27 11:05:35;;;;;;;19.55;5.60;;;7.10;99.90;;;;;;5088711;28;20062;-61
2024/01/27 11:08:02;;;;;;;18.00;7.78;;;7.20;99.90;;;;;;5089682;28;20043;-61
2024/01/27 11:10:35;;;;;;;19.33;9.35;;;7.20;99.90;;;;;;5089561;28;20552;-60
2024/01/27 11:13:02;;;;;;;20.58;5.13;;;7.20;99.90;;;;;;5088097;28;20058;-61
2024/01/27 11:15:28;;;;;;;29.38;7.65;;;7.20;99.90;;;;;;5072702;28;20079;-60
2024/01/27 11:17:59;;;;;;;22.20;5.68;;;7.30;99.90;;;;;;5089832;28;20449;-60
2024/01/27 11:20:25;;;;;;;16.30;5.45;;;7.30;99.90;;;;;;5088879;28;20473;-61
2024/01/27 11:22:52;;;;;;;12.75;5.05;;;7.40;99.90;;;;;;5091206;28;20051;-60
2024/01/27 11:25:19;;;;;;;19.67;4.80;;;7.40;99.90;;;;;;5090133;28;20040;-61
2024/01/27 11:27:48;;;;;;;15.65;5.50;;;7.40;99.90;;;;;;5087005;28;20052;-61
2024/01/27 11:30:29;;;;;;;16.10;5.50;;;7.50;99.90;;;;;;5088053;28;20124;-60
2024/01/27 11:32:56;;;;;;;16.30;5.68;;;7.50;99.90;;;;;;5088517;28;20040;-60
2024/01/27 11:35:22;;;;;;;21.63;6.53;;;7.50;99.90;;;;;;5092409;28;20040;-60
2024/01/27 11:37:48;;;;;;;14.20;4.97;;;7.60;99.90;;;;;;5104833;28;20090;-60
2024/01/27 11:40:15;;;;;;;18.17;4.85;;;7.60;99.90;;;;;;5097292;28;20047;-60
2024/01/27 11:42:41;;;;;;;19.10;5.20;;;7.60;99.90;;;;;;5089195;28;20071;-60
2024/01/27 11:45:09;;;;;;;20.45;5.50;;;7.60;99.90;;;;;;5089498;28;20048;-61
2024/01/27 11:47:34;;;;;;;17.25;4.53;;;7.70;99.90;;;;;;5088187;28;20043;-61
2024/01/27 11:50:00;;;;;;;15.00;3.17;;;7.70;99.90;;;;;;5100733;28;20488;-60
2024/01/27 11:52:27;;;;;;;20.33;5.22;;;7.70;99.90;;;;;;5107158;28;20086;-60
2024/01/27 11:54:57;;;;;;;13.57;3.67;;;7.70;99.90;;;;;;5089266;28;20035;-60
2024/01/27 11:57:23;;;;;;;11.43;2.70;;;7.80;99.90;;;;;;5088274;28;20043;-60
2024/01/27 11:59:50;;;;;;;10.13;3.25;;;7.80;99.90;;;;;;5071492;28;20043;-60
2024/01/27 12:02:16;;;;;;;10.45;3.13;;;7.90;99.90;;;;;;5088689;28;20075;-61
2024/01/27 12:04:43;;;;;;;10.48;2.88;;;7.90;99.90;;;;;;5096716;28;20079;-61
2024/01/27 12:07:09;;;;;;;14.95;3.28;;;8.00;99.90;;;;;;5088421;28;20461;-61
2024/01/27 12:09:37;;;;;;;12.30;4.20;;;8.00;99.90;;;;;;5103001;28;20036;-61
2024/01/27 12:12:08;;;;;;;13.93;3.28;;;8.00;99.90;;;;;;5071396;28;20040;-61
2024/01/27 12:14:49;;;;;;;10.57;3.35;;;7.90;99.90;;;;;;5087824;28;20127;-60
2024/01/27 12:17:15;;;;;;;12.50;3.58;;;7.90;99.90;;;;;;5087738;28;20043;-61
2024/01/27 12:19:53;;;;;;;10.43;3.83;;;8.00;99.90;;;;;;5089464;28;20054;-60
2024/01/27 12:22:29;;;;;;;10.52;3.25;;;8.00;99.90;;;;;;5087055;28;20446;-61
2024/01/27 12:24:56;;;;;;;11.00;3.35;;;8.00;99.90;;;;;;5086405;28;20086;-61
2024/01/27 12:27:22;;;;;;;9.13;3.90;;;8.00;99.90;;;;;;5068888;28;20421;-61
2024/01/27 12:29:49;;;;;;;10.55;3.22;;;8.00;99.90;;;;;;5086406;28;20093;-61
2024/01/27 12:32:16;;;;;;;11.15;2.88;;;8.10;99.90;;;;;;5087538;28;20073;-61
2024/01/27 12:34:42;;;;;;;10.68;4.15;;;8.10;99.90;;;;;;5087645;28;20044;-60
2024/01/27 12:37:10;;;;;;;16.33;4.00;;;8.10;99.90;;;;;;5070086;28;20062;-61
2024/01/27 12:39:36;;;;;;;13.48;3.50;;;8.20;99.90;;;;;;5070389;28;20550;-61
2024/01/27 12:42:02;;;;;;;9.32;3.67;;;8.10;99.90;;;;;;5071276;28;20139;-60